Time;durP1;ratioP1;P1;durP2;ratioP2;P2;SDS_P1;SDS_P2;PMS_P1;PMS_P2;Temp;Humidity;BMP_temperature;BMP_pressure;BME280_temperature;BME280_humidity;BME280_pressure;Samples;Min_cycle;Max_cycle;Signal;HPM_P1;HPM_P2
2021/08/09 00:02:15;;;;;;;3.30;2.13;;;18.60;98.50;;;;;;5070827;28;20450;-55
2021/08/09 00:04:41;;;;;;;5.60;2.00;;;18.60;98.80;;;;;;5052571;28;20920;-55
2021/08/09 00:07:09;;;;;;;3.03;2.20;;;18.50;98.60;;;;;;5070614;28;20440;-53
2021/08/09 00:09:37;;;;;;;4.93;1.80;;;18.50;98.80;;;;;;5070187;28;20463;-55
2021/08/09 00:12:04;;;;;;;2.37;2.17;;;18.40;98.80;;;;;;5070624;28;20443;-54
2021/08/09 00:14:31;;;;;;;5.40;2.40;;;18.40;99.00;;;;;;5070665;28;20757;-54
2021/08/09 00:16:57;;;;;;;4.77;1.97;;;18.40;99.20;;;;;;5070631;28;20435;-54
2021/08/09 00:19:25;;;;;;;3.40;2.50;;;18.30;99.10;;;;;;5070193;28;20857;-54
2021/08/09 00:21:52;;;;;;;2.30;2.10;;;18.30;99.20;;;;;;5070193;28;20436;-55
2021/08/09 00:24:19;;;;;;;4.80;1.90;;;18.30;99.30;;;;;;5070392;28;20460;-54
2021/08/09 00:26:45;;;;;;;4.47;2.03;;;18.20;99.20;;;;;;5070627;28;20479;-54
2021/08/09 00:29:12;;;;;;;3.07;1.90;;;18.10;99.30;;;;;;5070003;28;20462;-55
2021/08/09 00:31:38;;;;;;;2.93;2.17;;;18.20;99.30;;;;;;5052222;28;20454;-53
2021/08/09 00:34:05;;;;;;;2.73;1.70;;;18.10;99.50;;;;;;5051967;28;20448;-54
2021/08/09 00:36:33;;;;;;;2.40;1.90;;;18.10;99.60;;;;;;5052122;28;20530;-54
2021/08/09 00:39:00;;;;;;;3.80;2.10;;;17.80;99.50;;;;;;5051839;28;20447;-54
2021/08/09 00:41:27;;;;;;;4.37;2.80;;;18.00;99.80;;;;;;5052158;28;20447;-54
2021/08/09 00:43:54;;;;;;;5.20;2.60;;;18.00;99.80;;;;;;5052106;28;20923;-54
2021/08/09 00:46:20;;;;;;;3.83;1.80;;;17.90;99.90;;;;;;5051938;28;20569;-54
2021/08/09 00:48:52;;;;;;;2.33;1.90;;;17.90;99.90;;;;;;5051725;28;20458;-54
2021/08/09 00:51:18;;;;;;;4.97;2.50;;;17.90;99.90;;;;;;5052093;28;20544;-54
2021/08/09 00:53:49;;;;;;;3.60;2.07;;;17.80;99.90;;;;;;5052059;28;20489;-54
2021/08/09 00:56:16;;;;;;;4.53;2.20;;;17.80;99.90;;;;;;5051999;28;20794;-53
2021/08/09 00:58:44;;;;;;;2.60;1.93;;;17.80;99.90;;;;;;5051607;28;20859;-54
2021/08/09 01:01:11;;;;;;;4.23;2.00;;;17.70;99.90;;;;;;5051699;28;20981;-53
2021/08/09 01:03:39;;;;;;;3.13;2.20;;;17.70;99.90;;;;;;5070398;28;20779;-54
2021/08/09 01:06:07;;;;;;;3.13;1.80;;;17.70;99.90;;;;;;5052272;28;20563;-54
2021/08/09 01:08:43;;;;;;;3.10;2.20;;;17.60;99.90;;;;;;5051991;28;20448;-54
2021/08/09 01:11:19;;;;;;;2.70;1.73;;;17.60;99.90;;;;;;5052531;28;20533;-54
2021/08/09 01:13:59;;;;;;;3.23;2.10;;;17.60;99.90;;;;;;5052248;28;20446;-54
2021/08/09 01:16:37;;;;;;;4.33;1.80;;;17.50;99.90;;;;;;5052302;28;20899;-54
2021/08/09 01:19:16;;;;;;;4.17;1.97;;;17.50;99.90;;;;;;5052065;28;20784;-54
2021/08/09 01:21:44;;;;;;;3.50;1.70;;;17.50;99.90;;;;;;5055060;28;20561;-54
2021/08/09 01:24:22;;;;;;;2.10;1.90;;;17.50;99.90;;;;;;5056295;28;20858;-54
2021/08/09 01:26:55;;;;;;;5.73;1.93;;;17.50;99.90;;;;;;5056361;28;20481;-54
2021/08/09 01:29:31;;;;;;;2.20;1.80;;;17.40;99.90;;;;;;5055969;28;20973;-55
2021/08/09 01:32:00;;;;;;;2.73;1.73;;;17.40;99.90;;;;;;5074288;28;20436;-54
2021/08/09 01:34:29;;;;;;;4.23;2.13;;;17.40;99.90;;;;;;5056403;28;20488;-54
2021/08/09 01:36:59;;;;;;;2.73;1.87;;;17.30;99.90;;;;;;5056347;28;20454;-54
2021/08/09 01:39:30;;;;;;;2.77;1.80;;;17.30;99.90;;;;;;5073890;28;20425;-54
2021/08/09 01:41:57;;;;;;;2.93;2.17;;;17.30;99.90;;;;;;5056189;28;20471;-54
2021/08/09 01:44:26;;;;;;;2.83;2.00;;;17.30;99.90;;;;;;5055922;28;20564;-54
2021/08/09 01:46:55;;;;;;;2.67;2.33;;;17.30;99.90;;;;;;5055906;28;20895;-54
2021/08/09 01:49:23;;;;;;;3.97;1.77;;;17.20;99.90;;;;;;5055562;28;20446;-55
2021/08/09 01:51:51;;;;;;;2.10;1.80;;;17.20;99.90;;;;;;5055899;28;20478;-54
2021/08/09 01:54:20;;;;;;;4.33;1.67;;;17.20;99.90;;;;;;5073820;28;20480;-54
2021/08/09 01:56:49;;;;;;;2.60;1.67;;;17.20;99.90;;;;;;5055949;28;20460;-55
2021/08/09 01:59:15;;;;;;;2.83;1.83;;;17.10;99.90;;;;;;5055675;28;20469;-55
2021/08/09 02:01:43;;;;;;;2.40;1.70;;;17.10;99.90;;;;;;5055446;28;20456;-55
2021/08/09 02:04:10;;;;;;;4.63;1.57;;;17.10;99.90;;;;;;5055463;28;20816;-55
2021/08/09 02:06:37;;;;;;;4.17;1.90;;;17.10;99.90;;;;;;5055664;28;21032;-54
2021/08/09 02:09:06;;;;;;;3.30;1.83;;;17.10;99.90;;;;;;5055222;28;20548;-54
2021/08/09 02:11:39;;;;;;;2.83;1.73;;;17.10;99.90;;;;;;5055555;28;20451;-54
2021/08/09 02:14:08;;;;;;;3.13;1.70;;;17.10;99.90;;;;;;5055599;28;20500;-54
2021/08/09 02:16:38;;;;;;;5.20;1.90;;;17.00;99.90;;;;;;5073407;28;20899;-54
2021/08/09 02:19:17;;;;;;;3.70;2.03;;;17.00;99.90;;;;;;5055080;28;20937;-54
2021/08/09 02:21:48;;;;;;;3.40;2.10;;;17.00;99.90;;;;;;5055397;28;20446;-54
2021/08/09 02:24:19;;;;;;;3.00;2.27;;;17.00;99.90;;;;;;5055218;28;20470;-54
2021/08/09 02:26:49;;;;;;;2.60;1.90;;;17.00;99.90;;;;;;5054997;28;20581;-54
2021/08/09 02:29:22;;;;;;;6.77;2.37;;;16.90;99.90;;;;;;5054878;28;20834;-54
2021/08/09 02:31:51;;;;;;;3.83;1.97;;;16.90;99.90;;;;;;5073205;28;20643;-55
2021/08/09 02:34:22;;;;;;;2.90;2.10;;;16.90;99.90;;;;;;5054958;28;20480;-54
2021/08/09 02:36:51;;;;;;;5.40;2.37;;;16.90;99.90;;;;;;5055373;28;20486;-54
2021/08/09 02:39:18;;;;;;;3.50;2.03;;;16.90;99.90;;;;;;5054399;28;20537;-54
2021/08/09 02:41:46;;;;;;;2.87;1.90;;;16.90;99.90;;;;;;5054524;28;20634;-54
2021/08/09 02:44:14;;;;;;;4.53;2.10;;;16.80;99.90;;;;;;5053681;28;20446;-54
2021/08/09 02:46:41;;;;;;;2.70;2.30;;;16.80;99.90;;;;;;5054438;28;20550;-54
2021/08/09 02:49:09;;;;;;;4.20;2.57;;;16.80;99.90;;;;;;5054602;28;20453;-54
2021/08/09 02:51:37;;;;;;;2.30;2.03;;;16.80;99.90;;;;;;5054653;28;21020;-53
2021/08/09 02:54:05;;;;;;;5.40;2.10;;;16.80;99.90;;;;;;5072548;28;20404;-54
2021/08/09 02:56:34;;;;;;;4.53;2.03;;;16.80;99.90;;;;;;5072820;28;20514;-53
2021/08/09 02:59:02;;;;;;;3.30;2.03;;;16.70;99.90;;;;;;5053879;28;20900;-53
2021/08/09 03:01:32;;;;;;;5.03;2.27;;;16.70;99.90;;;;;;5072342;28;20433;-53
2021/08/09 03:04:01;;;;;;;2.80;2.27;;;16.70;99.90;;;;;;5072221;28;20455;-54
2021/08/09 03:06:29;;;;;;;5.83;2.10;;;16.70;99.90;;;;;;5054261;28;20573;-54
2021/08/09 03:08:58;;;;;;;2.97;2.20;;;16.70;99.90;;;;;;5053833;28;20827;-53
2021/08/09 03:11:25;;;;;;;6.13;2.40;;;16.70;99.90;;;;;;5054196;28;20574;-53
2021/08/09 03:13:52;;;;;;;4.80;2.30;;;16.60;99.90;;;;;;5054304;28;20503;-54
2021/08/09 03:16:19;;;;;;;2.73;1.90;;;16.60;99.90;;;;;;5072027;28;20457;-53
2021/08/09 03:18:46;;;;;;;4.50;2.00;;;16.60;99.90;;;;;;5053602;28;20438;-54
2021/08/09 03:21:14;;;;;;;3.60;2.83;;;16.60;99.90;;;;;;5053993;28;20970;-54
2021/08/09 03:23:41;;;;;;;3.43;2.57;;;16.50;99.90;;;;;;5054239;28;20449;-54
2021/08/09 03:26:10;;;;;;;5.50;2.20;;;16.50;99.90;;;;;;5053678;28;20568;-54
2021/08/09 03:28:37;;;;;;;2.80;2.30;;;16.50;99.90;;;;;;5053400;28;20452;-54
2021/08/09 03:31:04;;;;;;;2.97;2.40;;;16.50;99.90;;;;;;5054098;28;20469;-54
2021/08/09 03:33:31;;;;;;;3.80;2.20;;;16.50;99.90;;;;;;5053727;28;20958;-53
2021/08/09 03:35:59;;;;;;;4.27;2.10;;;16.50;99.90;;;;;;5053567;28;20564;-54
2021/08/09 03:38:26;;;;;;;2.80;1.80;;;16.40;99.90;;;;;;5071521;28;20540;-54
2021/08/09 03:40:53;;;;;;;3.47;2.10;;;16.40;99.90;;;;;;5053419;28;20450;-53
2021/08/09 03:43:21;;;;;;;4.70;2.27;;;16.40;99.90;;;;;;5053117;28;20902;-54
2021/08/09 03:45:48;;;;;;;2.93;2.20;;;16.40;99.90;;;;;;5053813;28;20560;-54
2021/08/09 03:48:15;;;;;;;4.67;2.97;;;16.40;99.90;;;;;;5053564;28;20750;-54
2021/08/09 03:50:41;;;;;;;2.80;2.43;;;16.40;99.90;;;;;;5053729;28;20518;-54
2021/08/09 03:53:08;;;;;;;6.13;2.40;;;16.40;99.90;;;;;;5071584;28;20947;-54
2021/08/09 03:55:35;;;;;;;2.90;1.97;;;16.40;99.90;;;;;;5053553;28;20862;-54
2021/08/09 03:58:02;;;;;;;6.00;2.60;;;16.40;99.90;;;;;;5071127;28;20954;-54
2021/08/09 04:00:30;;;;;;;4.40;2.80;;;16.40;99.90;;;;;;5053318;28;21044;-53
2021/08/09 04:02:56;;;;;;;3.00;2.50;;;16.40;99.90;;;;;;5053228;28;20813;-54
2021/08/09 04:05:29;;;;;;;4.43;3.00;;;16.40;99.90;;;;;;5053056;28;20958;-53
2021/08/09 04:07:56;;;;;;;4.03;3.10;;;16.30;99.90;;;;;;5052927;28;20612;-53
2021/08/09 04:10:23;;;;;;;3.73;2.60;;;16.30;99.90;;;;;;5052765;28;20515;-54
2021/08/09 04:12:50;;;;;;;3.70;2.57;;;16.30;99.90;;;;;;5053012;28;20462;-54
2021/08/09 04:15:17;;;;;;;4.17;3.03;;;16.30;99.90;;;;;;5053021;28;20475;-54
2021/08/09 04:17:45;;;;;;;3.50;2.57;;;16.30;99.90;;;;;;5052808;28;20442;-54
2021/08/09 04:20:13;;;;;;;8.57;3.20;;;16.30;99.90;;;;;;5052686;28;20442;-53
2021/08/09 04:22:40;;;;;;;3.80;2.90;;;16.30;99.90;;;;;;5070820;28;20962;-54
2021/08/09 04:25:08;;;;;;;4.20;3.20;;;16.40;99.90;;;;;;5052947;28;20476;-54
2021/08/09 04:27:35;;;;;;;3.30;2.33;;;16.40;99.90;;;;;;5052566;28;20585;-54
2021/08/09 04:30:01;;;;;;;3.30;2.87;;;16.40;99.90;;;;;;5052173;28;20549;-53
2021/08/09 04:32:38;;;;;;;3.73;2.97;;;16.40;99.90;;;;;;5052724;28;20492;-54
2021/08/09 04:35:08;;;;;;;4.47;3.13;;;16.40;99.90;;;;;;5052669;28;20530;-54
2021/08/09 04:37:34;;;;;;;6.43;3.77;;;16.40;99.90;;;;;;5052312;28;20523;-54
2021/08/09 04:40:01;;;;;;;4.80;3.40;;;16.50;99.90;;;;;;5052619;28;20511;-54
2021/08/09 04:42:28;;;;;;;4.00;3.60;;;16.50;99.90;;;;;;5052366;28;20454;-54
2021/08/09 04:44:55;;;;;;;7.20;2.90;;;16.70;99.90;;;;;;5052253;28;20552;-54
2021/08/09 04:47:22;;;;;;;3.33;2.77;;;16.80;99.90;;;;;;5052083;28;20470;-54
2021/08/09 04:49:48;;;;;;;3.83;2.77;;;16.90;99.90;;;;;;5051956;28;20536;-53
2021/08/09 04:52:17;;;;;;;4.43;2.77;;;17.00;99.90;;;;;;5070605;28;20491;-54
2021/08/09 04:54:44;;;;;;;4.30;2.73;;;17.10;99.90;;;;;;5051628;28;20465;-53
2021/08/09 04:57:11;;;;;;;4.17;2.97;;;17.20;99.90;;;;;;5051760;28;20451;-55
2021/08/09 04:59:38;;;;;;;4.07;3.60;;;17.10;99.90;;;;;;5069930;28;20428;-55
2021/08/09 05:02:05;;;;;;;6.87;3.60;;;17.20;99.90;;;;;;5051918;28;20454;-56
2021/08/09 05:04:31;;;;;;;3.90;2.87;;;17.20;99.90;;;;;;5052509;28;20522;-53
2021/08/09 05:06:58;;;;;;;8.37;4.20;;;17.20;99.90;;;;;;5051503;28;20505;-54
2021/08/09 05:09:26;;;;;;;5.47;3.30;;;17.30;99.90;;;;;;5069749;28;20429;-54
2021/08/09 05:11:53;;;;;;;4.37;3.43;;;17.40;99.90;;;;;;5052123;28;20453;-54
2021/08/09 05:14:22;;;;;;;4.40;2.93;;;17.70;99.90;;;;;;5051654;28;20494;-53
2021/08/09 05:16:49;;;;;;;5.53;3.60;;;17.50;99.90;;;;;;5069493;28;20430;-54
2021/08/09 05:19:15;;;;;;;6.17;2.93;;;17.60;99.90;;;;;;5051311;28;20450;-54
2021/08/09 05:21:42;;;;;;;5.50;3.47;;;17.70;99.90;;;;;;5051860;28;20442;-54
2021/08/09 05:24:09;;;;;;;6.33;2.93;;;17.50;99.90;;;;;;5051290;28;20970;-55
2021/08/09 05:26:37;;;;;;;5.07;3.70;;;17.90;99.90;;;;;;5051054;28;20828;-53
2021/08/09 05:29:04;;;;;;;4.67;3.70;;;18.00;99.90;;;;;;5069234;28;20937;-53
2021/08/09 05:31:30;;;;;;;5.23;3.10;;;18.10;99.90;;;;;;5069094;28;20439;-53
2021/08/09 05:34:01;;;;;;;5.43;2.80;;;18.10;99.90;;;;;;5069699;28;20932;-55
2021/08/09 05:36:33;;;;;;;4.43;2.90;;;18.20;99.90;;;;;;5069223;28;20457;-56
2021/08/09 05:39:00;;;;;;;6.13;3.80;;;18.30;99.90;;;;;;5051536;28;20455;-55
2021/08/09 05:41:29;;;;;;;4.00;2.70;;;18.40;99.90;;;;;;5051044;28;20475;-54
2021/08/09 05:43:57;;;;;;;3.77;2.80;;;18.50;99.90;;;;;;5051184;28;20454;-53
2021/08/09 05:46:24;;;;;;;3.70;3.30;;;18.50;99.90;;;;;;5051017;28;20534;-54
2021/08/09 05:48:51;;;;;;;7.13;3.60;;;18.60;99.90;;;;;;5068883;28;20439;-53
2021/08/09 05:51:18;;;;;;;4.20;2.93;;;18.70;99.90;;;;;;5050769;28;20459;-54
2021/08/09 05:53:45;;;;;;;5.37;2.90;;;18.70;99.90;;;;;;5051159;28;20540;-54
2021/08/09 05:56:11;;;;;;;6.23;4.30;;;18.80;99.90;;;;;;5051340;28;20505;-55
2021/08/09 05:58:49;;;;;;;4.43;3.40;;;18.80;99.80;;;;;;5050989;28;20494;-53
2021/08/09 06:01:18;;;;;;;5.53;3.10;;;18.80;99.70;;;;;;5050859;28;20573;-54
2021/08/09 06:03:45;;;;;;;5.30;3.50;;;18.90;99.70;;;;;;5051543;28;20455;-52
2021/08/09 06:06:17;;;;;;;4.67;2.97;;;19.00;99.60;;;;;;5051222;28;20541;-55
2021/08/09 06:08:44;;;;;;;10.53;3.40;;;19.00;99.40;;;;;;5054560;28;20476;-53
2021/08/09 06:11:12;;;;;;;8.40;3.30;;;19.00;99.30;;;;;;5055115;28;20541;-54
2021/08/09 06:13:39;;;;;;;4.67;3.00;;;19.10;99.30;;;;;;5054582;28;20462;-54
2021/08/09 06:16:06;;;;;;;10.37;2.90;;;19.20;99.20;;;;;;5054492;28;20471;-54
2021/08/09 06:18:36;;;;;;;5.90;3.70;;;19.30;98.90;;;;;;5072926;28;20889;-53
2021/08/09 06:21:05;;;;;;;3.13;2.40;;;19.50;98.80;;;;;;5055050;28;20456;-54
2021/08/09 06:23:32;;;;;;;3.60;2.97;;;19.60;98.70;;;;;;5054683;28;20551;-55
2021/08/09 06:25:59;;;;;;;8.37;3.23;;;19.80;98.40;;;;;;5054945;28;20467;-55
2021/08/09 06:28:29;;;;;;;4.53;2.80;;;19.90;98.40;;;;;;5054565;28;20495;-55
2021/08/09 06:30:59;;;;;;;4.40;3.10;;;20.00;98.10;;;;;;5054682;28;20959;-53
2021/08/09 06:33:25;;;;;;;8.03;3.00;;;20.10;97.90;;;;;;5072657;28;20433;-55
2021/08/09 06:35:54;;;;;;;9.77;2.80;;;20.20;97.80;;;;;;5054924;28;20464;-55
2021/08/09 06:38:21;;;;;;;7.87;3.40;;;20.20;97.60;;;;;;5054646;28;20449;-55
2021/08/09 06:40:48;;;;;;;5.27;2.80;;;20.20;97.60;;;;;;5054147;28;20457;-54
2021/08/09 06:43:14;;;;;;;4.87;3.20;;;20.10;97.60;;;;;;5054256;28;20442;-56
2021/08/09 06:45:50;;;;;;;4.80;2.50;;;20.10;97.60;;;;;;5055596;28;20551;-56
2021/08/09 06:48:18;;;;;;;3.53;2.40;;;20.00;97.40;;;;;;5053994;28;20535;-55
2021/08/09 06:50:45;;;;;;;6.03;2.47;;;20.10;97.40;;;;;;5054206;28;20529;-57
2021/08/09 06:53:13;;;;;;;4.60;3.10;;;20.00;97.40;;;;;;5054438;28;20479;-56
2021/08/09 06:55:45;;;;;;;3.97;2.80;;;20.10;97.40;;;;;;5054059;28;20476;-55
2021/08/09 06:58:13;;;;;;;6.10;2.53;;;20.20;97.20;;;;;;5053885;28;20538;-57
2021/08/09 07:00:43;;;;;;;3.60;2.93;;;20.30;97.20;;;;;;5055160;28;20511;-54
2021/08/09 07:03:12;;;;;;;6.70;3.00;;;20.30;97.00;;;;;;5053676;28;20469;-53
2021/08/09 07:05:41;;;;;;;3.33;2.70;;;20.30;97.00;;;;;;5053999;28;20953;-55
2021/08/09 07:08:08;;;;;;;7.67;2.83;;;20.40;96.80;;;;;;5053453;28;20493;-53
2021/08/09 07:10:36;;;;;;;3.80;2.40;;;20.40;96.80;;;;;;5053961;28;20751;-53
2021/08/09 07:13:03;;;;;;;5.83;2.83;;;20.20;96.60;;;;;;5053769;28;20975;-53
2021/08/09 07:15:30;;;;;;;6.23;3.10;;;20.50;96.70;;;;;;5053875;28;20485;-53
2021/08/09 07:17:56;;;;;;;4.60;2.77;;;20.60;96.60;;;;;;5053148;28;20450;-55
2021/08/09 07:20:25;;;;;;;3.80;2.30;;;20.60;96.50;;;;;;5053538;28;20453;-55
2021/08/09 07:22:52;;;;;;;7.30;3.07;;;20.60;96.30;;;;;;5053882;28;20457;-55
2021/08/09 07:25:20;;;;;;;5.37;3.00;;;20.70;96.30;;;;;;5052947;28;20461;-54
2021/08/09 07:27:49;;;;;;;4.10;2.63;;;20.80;96.20;;;;;;5052896;28;20473;-54
2021/08/09 07:30:18;;;;;;;3.57;2.67;;;20.80;96.10;;;;;;5053417;28;20547;-56
2021/08/09 07:32:46;;;;;;;7.53;3.07;;;20.90;96.10;;;;;;5053265;28;20800;-55
2021/08/09 07:35:14;;;;;;;10.23;3.90;;;20.90;96.00;;;;;;5053686;28;20462;-54
2021/08/09 07:37:41;;;;;;;4.23;3.00;;;20.70;95.70;;;;;;5053121;28;20871;-54
2021/08/09 07:40:09;;;;;;;8.33;3.93;;;21.10;95.70;;;;;;5053053;28;20539;-56
2021/08/09 07:42:35;;;;;;;5.00;3.00;;;21.10;95.50;;;;;;5053400;28;20552;-56
2021/08/09 07:45:04;;;;;;;5.50;2.87;;;21.20;95.50;;;;;;5052657;28;20477;-55
2021/08/09 07:47:31;;;;;;;5.73;3.27;;;21.30;95.50;;;;;;5052649;28;20523;-54
2021/08/09 07:49:59;;;;;;;3.20;2.47;;;21.30;95.20;;;;;;5052731;28;20962;-53
2021/08/09 07:52:26;;;;;;;4.30;3.07;;;21.40;95.20;;;;;;5052950;28;20453;-54
2021/08/09 07:54:53;;;;;;;3.60;2.63;;;21.50;95.00;;;;;;5053365;28;20881;-55
2021/08/09 07:57:21;;;;;;;4.30;3.00;;;21.60;94.90;;;;;;5053125;28;20439;-54
2021/08/09 07:59:48;;;;;;;4.60;3.30;;;21.60;94.80;;;;;;5052369;28;20457;-54
2021/08/09 08:02:16;;;;;;;5.30;3.80;;;21.70;94.70;;;;;;5053061;28;20500;-53
2021/08/09 08:04:43;;;;;;;6.10;3.33;;;21.70;94.70;;;;;;5071099;28;20829;-53
2021/08/09 08:07:10;;;;;;;5.50;3.30;;;21.70;94.60;;;;;;5052989;28;20458;-55
2021/08/09 08:09:37;;;;;;;4.57;2.40;;;21.70;94.40;;;;;;5052571;28;20459;-54
2021/08/09 08:12:05;;;;;;;10.70;3.40;;;21.70;94.30;;;;;;5053022;28;20459;-56
2021/08/09 08:14:33;;;;;;;4.17;2.33;;;21.70;94.30;;;;;;5052679;28;20483;-54
2021/08/09 08:17:00;;;;;;;6.00;3.33;;;21.70;94.30;;;;;;5052757;28;20550;-54
2021/08/09 08:19:28;;;;;;;7.43;3.40;;;21.70;94.30;;;;;;5052816;28;20531;-52
2021/08/09 08:21:55;;;;;;;5.20;3.00;;;21.70;94.30;;;;;;5053269;28;20451;-53
2021/08/09 08:24:23;;;;;;;4.30;2.80;;;21.70;94.30;;;;;;5052284;28;20470;-53
2021/08/09 08:26:50;;;;;;;4.87;3.27;;;21.70;94.20;;;;;;5052272;28;20822;-55
2021/08/09 08:29:16;;;;;;;8.33;3.47;;;21.70;94.10;;;;;;5051946;28;20475;-55
2021/08/09 08:31:43;;;;;;;5.87;2.93;;;21.60;93.90;;;;;;5052633;28;20528;-53
2021/08/09 08:34:10;;;;;;;6.03;3.40;;;21.60;93.80;;;;;;5051935;28;20454;-53
2021/08/09 08:36:39;;;;;;;4.40;2.90;;;21.60;93.80;;;;;;5052800;28;20447;-53
2021/08/09 08:39:10;;;;;;;4.60;2.60;;;21.60;93.90;;;;;;5051793;28;20453;-54
2021/08/09 08:41:42;;;;;;;3.87;2.63;;;21.60;93.90;;;;;;5051907;28;20440;-54
2021/08/09 08:44:09;;;;;;;2.87;2.37;;;21.60;93.90;;;;;;5051703;28;20475;-55
2021/08/09 08:46:38;;;;;;;4.70;2.87;;;21.70;93.90;;;;;;5052179;28;20509;-56
2021/08/09 08:49:08;;;;;;;4.60;3.00;;;21.70;93.80;;;;;;5051590;28;20522;-54
2021/08/09 08:51:37;;;;;;;5.87;2.47;;;21.80;93.90;;;;;;5069890;28;20795;-55
2021/08/09 08:54:05;;;;;;;5.60;4.10;;;21.90;93.80;;;;;;5069704;28;20434;-54
2021/08/09 08:56:32;;;;;;;13.63;2.80;;;21.90;93.80;;;;;;5070242;28;20447;-55
2021/08/09 08:58:58;;;;;;;5.63;2.77;;;22.00;93.70;;;;;;5070120;28;20783;-55
2021/08/09 09:01:36;;;;;;;6.20;2.77;;;22.00;93.40;;;;;;5070132;28;20523;-54
2021/08/09 09:04:21;;;;;;;5.67;2.47;;;22.10;93.00;;;;;;5069672;28;20488;-55
2021/08/09 09:06:47;;;;;;;6.90;3.60;;;22.10;93.00;;;;;;5070079;28;20787;-55
2021/08/09 09:09:22;;;;;;;7.07;2.40;;;22.10;93.00;;;;;;5069470;28;20490;-54
2021/08/09 09:11:49;;;;;;;4.70;3.13;;;22.10;92.70;;;;;;5069693;28;20463;-55
2021/08/09 09:14:25;;;;;;;5.13;2.60;;;22.20;92.70;;;;;;5069628;28;20495;-55
2021/08/09 09:16:52;;;;;;;5.07;2.97;;;22.30;92.60;;;;;;5069526;28;20429;-55
2021/08/09 09:19:34;;;;;;;5.90;3.33;;;22.40;92.60;;;;;;5069028;28;20424;-54
2021/08/09 09:22:02;;;;;;;3.70;2.50;;;22.50;92.40;;;;;;5069536;28;20524;-54
2021/08/09 09:24:30;;;;;;;4.37;2.73;;;22.50;92.30;;;;;;5069611;28;20482;-54
2021/08/09 09:26:59;;;;;;;3.77;2.83;;;22.60;92.10;;;;;;5069345;28;20540;-54
2021/08/09 09:29:26;;;;;;;5.97;2.80;;;22.70;91.90;;;;;;5069357;28;21053;-54
2021/08/09 09:31:54;;;;;;;8.63;3.00;;;22.70;91.60;;;;;;5069869;28;20905;-54
2021/08/09 09:34:23;;;;;;;4.80;3.20;;;22.80;91.60;;;;;;5069420;28;20486;-56
2021/08/09 09:36:55;;;;;;;4.97;2.80;;;22.80;91.40;;;;;;5069638;28;20502;-53
2021/08/09 09:39:41;;;;;;;4.73;3.03;;;22.80;91.30;;;;;;5069393;28;20428;-54
2021/08/09 09:42:09;;;;;;;3.60;2.10;;;22.90;91.30;;;;;;5070925;28;20505;-55
2021/08/09 09:44:38;;;;;;;5.40;3.20;;;22.90;91.30;;;;;;5073637;28;20535;-54
2021/08/09 09:47:21;;;;;;;4.37;2.27;;;22.90;91.20;;;;;;5073745;28;20924;-55
2021/08/09 09:49:49;;;;;;;5.30;2.77;;;23.00;90.90;;;;;;5073149;28;20501;-54
2021/08/09 09:52:32;;;;;;;4.80;2.67;;;23.10;91.10;;;;;;5073563;28;20932;-55
2021/08/09 09:55:02;;;;;;;7.10;3.03;;;23.20;91.00;;;;;;5074166;28;20464;-53
2021/08/09 09:57:29;;;;;;;4.57;2.77;;;23.20;90.70;;;;;;5073820;28;20998;-54
2021/08/09 09:59:57;;;;;;;6.60;2.40;;;23.20;90.60;;;;;;5073046;28;20472;-54
2021/08/09 10:02:23;;;;;;;4.83;3.17;;;23.10;90.40;;;;;;5073489;28;20809;-55
2021/08/09 10:04:51;;;;;;;3.80;1.90;;;23.10;90.40;;;;;;5073670;28;20483;-55
2021/08/09 10:07:20;;;;;;;6.17;3.20;;;23.00;90.40;;;;;;5073617;28;20444;-54
2021/08/09 10:09:49;;;;;;;6.90;2.80;;;23.00;90.40;;;;;;5072789;28;20485;-55
2021/08/09 10:12:18;;;;;;;5.53;2.83;;;23.00;90.40;;;;;;5073281;28;20432;-55
2021/08/09 10:14:47;;;;;;;4.23;2.70;;;23.00;90.40;;;;;;5055340;28;20472;-55
2021/08/09 10:17:16;;;;;;;4.40;2.80;;;23.10;90.30;;;;;;5073213;28;20497;-55
2021/08/09 10:19:46;;;;;;;7.63;3.00;;;23.10;90.30;;;;;;5072962;28;20434;-54
2021/08/09 10:22:13;;;;;;;4.57;2.87;;;23.20;90.20;;;;;;5073210;28;20492;-55
2021/08/09 10:24:42;;;;;;;5.93;3.30;;;23.30;90.00;;;;;;5072897;28;20465;-55
2021/08/09 10:27:09;;;;;;;5.30;3.37;;;23.40;89.10;;;;;;5072329;28;20844;-55
2021/08/09 10:30:12;;;;;;;3.83;2.70;;;23.40;87.30;;;;;;5072469;28;20945;-55
2021/08/09 10:32:44;;;;;;;3.20;2.40;;;23.60;86.80;;;;;;5073334;28;20430;-54
2021/08/09 10:35:45;;;;;;;6.33;3.30;;;23.60;87.20;;;;;;5072982;28;20482;-55
2021/08/09 10:38:13;;;;;;;6.97;2.60;;;23.60;86.50;;;;;;5054111;28;20567;-54
2021/08/09 10:40:40;;;;;;;4.70;2.47;;;23.60;86.80;;;;;;5072194;28;20463;-55
2021/08/09 10:43:07;;;;;;;4.67;2.40;;;23.60;86.20;;;;;;5072222;28;20628;-55
2021/08/09 10:45:43;;;;;;;5.27;2.17;;;23.60;86.00;;;;;;5054372;28;20897;-55
2021/08/09 10:48:11;;;;;;;6.37;2.93;;;23.60;84.90;;;;;;5071956;28;20478;-55
2021/08/09 10:50:54;;;;;;;2.80;1.73;;;23.60;84.70;;;;;;5072444;28;20440;-54
2021/08/09 10:53:47;;;;;;;5.63;2.63;;;23.70;84.30;;;;;;5052923;28;20453;-54
2021/08/09 10:56:48;;;;;;;8.40;3.53;;;23.60;84.50;;;;;;5072353;28;20455;-54
2021/08/09 10:59:40;;;;;;;5.97;3.27;;;23.60;84.70;;;;;;5071853;28;20440;-54
2021/08/09 11:02:19;;;;;;;9.47;5.50;;;23.70;83.90;;;;;;5071771;28;20438;-55
2021/08/09 11:05:25;;;;;;;4.60;2.47;;;23.80;84.50;;;;;;5096639;22;20523;-54
2021/08/09 11:08:31;;;;;;;6.40;2.87;;;23.90;83.20;;;;;;5073619;28;20793;-53
2021/08/09 11:11:07;;;;;;;4.93;3.00;;;23.90;80.90;;;;;;5055215;28;20459;-53
2021/08/09 11:14:14;;;;;;;5.37;2.03;;;23.90;80.70;;;;;;5073402;28;20440;-53
2021/08/09 11:16:41;;;;;;;7.63;2.47;;;24.10;80.60;;;;;;5052749;28;20440;-53
2021/08/09 11:19:20;;;;;;;8.37;3.20;;;24.30;80.60;;;;;;5053311;28;20779;-53
2021/08/09 11:21:50;;;;;;;7.10;2.80;;;24.50;78.20;;;;;;5052774;28;20467;-53
2021/08/09 11:24:34;;;;;;;8.53;2.20;;;24.60;78.60;;;;;;5052757;28;20435;-54
2021/08/09 11:27:05;;;;;;;2.50;1.90;;;24.70;77.60;;;;;;5052323;28;20779;-54
2021/08/09 11:29:56;;;;;;;4.47;2.20;;;24.80;77.20;;;;;;5051989;28;20836;-54
2021/08/09 11:32:36;;;;;;;3.07;2.20;;;24.80;75.80;;;;;;5052535;28;20468;-54
2021/08/09 11:35:06;;;;;;;12.80;2.97;;;24.80;75.00;;;;;;5052675;28;20480;-53
2021/08/09 11:37:32;;;;;;;5.00;2.43;;;24.80;74.00;;;;;;5052231;28;20438;-54
2021/08/09 11:39:59;;;;;;;7.50;2.00;;;24.80;73.40;;;;;;5052259;28;20628;-53
2021/08/09 11:42:46;;;;;;;3.47;2.10;;;24.80;72.20;;;;;;5052467;28;20442;-54
2021/08/09 11:45:26;;;;;;;7.67;2.40;;;24.80;73.10;;;;;;5052256;28;20666;-53
2021/08/09 11:47:53;;;;;;;4.13;1.90;;;24.80;71.80;;;;;;5052005;28;20441;-54
2021/08/09 11:50:21;;;;;;;4.00;2.00;;;24.90;71.60;;;;;;5051882;28;20477;-53
2021/08/09 11:52:48;;;;;;;4.67;2.20;;;25.10;70.60;;;;;;5052201;28;21029;-54
2021/08/09 11:55:19;;;;;;;6.20;2.10;;;25.20;70.60;;;;;;5052027;28;20818;-54
2021/08/09 11:57:46;;;;;;;3.70;1.90;;;25.20;69.90;;;;;;5033714;28;20481;-54
2021/08/09 12:00:13;;;;;;;3.97;1.87;;;25.30;69.90;;;;;;5051802;28;20434;-54
2021/08/09 12:03:08;;;;;;;6.47;2.03;;;25.30;70.00;;;;;;5052531;28;20752;-54
2021/08/09 12:05:37;;;;;;;3.20;1.93;;;25.40;69.40;;;;;;5051527;28;20529;-54
2021/08/09 12:08:05;;;;;;;5.03;2.23;;;25.40;68.70;;;;;;5051614;28;20437;-54
2021/08/09 12:10:39;;;;;;;5.33;2.03;;;25.40;68.70;;;;;;5051780;28;20571;-55
2021/08/09 12:13:26;;;;;;;3.53;2.80;;;25.50;69.30;;;;;;5033828;28;20523;-54
2021/08/09 12:16:10;;;;;;;5.23;3.20;;;25.70;68.80;;;;;;5051604;28;20466;-54
2021/08/09 12:18:38;;;;;;;5.23;2.30;;;25.80;68.40;;;;;;5051309;28;20423;-54
2021/08/09 12:21:10;;;;;;;5.37;2.90;;;25.80;67.80;;;;;;5051586;28;20441;-54
2021/08/09 12:23:53;;;;;;;6.00;2.33;;;25.80;67.20;;;;;;5033626;28;20831;-54
2021/08/09 12:26:25;;;;;;;4.00;2.50;;;25.90;66.40;;;;;;5051319;28;20465;-54
2021/08/09 12:28:53;;;;;;;4.20;2.37;;;25.90;67.20;;;;;;5050380;28;20927;-54
2021/08/09 12:31:35;;;;;;;7.23;3.00;;;26.00;66.60;;;;;;5033357;28;20896;-54
2021/08/09 12:34:04;;;;;;;5.33;2.30;;;26.00;65.30;;;;;;5051211;28;20435;-54
2021/08/09 12:36:33;;;;;;;4.80;3.27;;;26.00;65.90;;;;;;5051271;28;20450;-54
2021/08/09 12:39:00;;;;;;;4.77;2.40;;;26.10;65.70;;;;;;5049748;28;20457;-54
2021/08/09 12:41:28;;;;;;;4.13;2.27;;;26.10;65.20;;;;;;5051117;28;20445;-54
2021/08/09 12:43:55;;;;;;;4.73;2.80;;;26.20;64.30;;;;;;5051155;28;20431;-54
2021/08/09 12:46:22;;;;;;;3.83;2.70;;;26.20;64.30;;;;;;5051718;28;20481;-54
2021/08/09 12:48:50;;;;;;;5.40;2.80;;;26.20;63.80;;;;;;5050996;28;20478;-53
2021/08/09 12:51:17;;;;;;;5.60;2.20;;;26.30;64.20;;;;;;5051223;28;20434;-54
2021/08/09 12:53:45;;;;;;;4.33;2.23;;;26.30;63.50;;;;;;5051278;28;20927;-55
2021/08/09 12:56:12;;;;;;;4.50;2.47;;;26.30;62.80;;;;;;5050849;28;20465;-54
2021/08/09 12:58:40;;;;;;;3.40;2.20;;;26.20;62.00;;;;;;5050712;28;20868;-54
2021/08/09 13:01:06;;;;;;;7.93;5.60;;;26.30;61.80;;;;;;5050971;28;20449;-54